Airfield :
LOGIN :

Register | Disclaimer

   EN    FR    IT 

 










Legend :    VFR   Marginal VFR   IFR   Intensive IFR   Very Intensive IFR
Visi :
Ceiling :
>= 8 km
>= 3000ft
5 to 8 km
1000 to 3000 ft
1500m to 5 km
500 to 1000 ft
800 to 1500m
200 to 500 ft
< 800m
< 200 ft
Symbols :   Thunderstorms  Fog  Heavy snow  Heavy precipitations  Wind > 20 kt
SIGMETs :     Misc.  Thunderstorms  Icing  Turbulence  Mountain Waves  Volcanic Ashes







- Airport Elevation : 336 ft
- IATA code : GCI
- Download approach charts


EGJB - Guernsey

CURRENT METAR :
  • 191850Z 07015KT 9999 FEW020 15/11 Q1027

EXPIRED METARs :
  • 191820Z 07016KT 9999 FEW024 15/11 Q1027
  • 191750Z 06018KT 9999 FEW024 15/11 Q1026
  • 191720Z 06016KT 030V090 9999 FEW024 16/11 Q1026
  • 191650Z 06016G26KT 9999 FEW024 16/11 Q1027
  • 191620Z 06015G26KT 9999 FEW028 17/11 Q1027

TAF TAF EGJB
Valid from the 19 at 18:00 until the 20 at 03:00 UTC


191658Z 1918/2003 06016KT CAVOK
TEMPO 1918/1921 06018G28KT
BECMG 1920/1922 09015KT
TEMPO 1921/2003 09016G26KT
ATIS : +44 1481 238 957
No reported NOTAMs for that airfield.



MET'MAP, your aeronautical weather chart ! - Copyright ORBIFLY December 2007 - Disclaimer

ORBIFLY MET'MAP TEAM :

Programming & Development : Alexandra Zaïnal
Concept & Development : Baudouin d'Aumeries
Co-Development & Prog : Marc-Olivier Méhu
Technical & hardware support : Manuel Goepfert

Contact : metmap@orbifly.com




SOURCES & CREDITS :

   NOAA